Aérodrome :
LOGIN :

S'inscrire | Disclaimer

   EN    FR    IT 

 










Légende :    VFR   VFR Marginal   IFR   IFR Intensif   IFR Très Intensif
Visi : 
Plafond : 
>= 8 km
>= 3000ft
5 à 8 km
1000 à 3000 ft
1500m à 5 km
500 à 1000 ft
800 à 1500m
200 à 500 ft
< 800m
< 200 ft
Symboles :   Orages  Brouillard  Fortes neiges  Fortes précipitations  Vent > 20 kt
SIGMETs :   Divers  Orages  Givrage  Turbulence  Onde Orograph.  Cendres Volcan.







- Altitude de l'aérodrome : 82 ft
- Code IATA : ALG


DAAG - Alger Houari Boumedienne

DERNIER METAR :
  • 280800Z 06015KT 9999 TS SCT010 SCT026CB BKN040 15/13 Q1014 RERA

METARs EXPIRÉS :
  • 280730Z 06017KT 9999 TS SCT010 FEW026CB BKN040 14/12 Q1014 RERA
  • 280700Z 06014KT 9999 TSRA SCT010 SCT026CB BKN040 14/12 Q1013
  • 280630Z 05020G30KT 9999 SCT010 FEW026CB BKN040 14/12 Q1013
  • 280600Z 04021KT 6000 -RA SCT010 FEW026CB BKN040 14/13 Q1013
  • 280530Z 04020KT 9999 SCT010 FEW026CB BKN040 14/13 Q1014

TAF AMD TAF DAAG
Valide du 28 à 07h jusqu'au 29 à 06h UTC


280712Z 2807/2906 05018KT 6000 SCT010 BKN040
TEMPO 2807/2814 05018G28KT 4000 -RA BKN010 FEW026CB
PROB40
TEMPO 2807/2812 05020G35KT 3000 TSRA FEW023CB BKN015
Pas de NOTAMs connus pour ce terrain.
1 SIGMET publié pour la FIR Alger (DAAA) :
 
Orages noyés dans la masse
DAAA SIGMET 2 VALID 280630/281030 DAMM
DAAA ALGIERS FIR ISOL EMBD TS OBS WI N3627 W00116 - N3720 E00046 - N3752 E00358 - N3620 E00314 - N3525 W00055 - N3627 W00116 TOP FL350 MOV NE=



MET'MAP, la Météo Aéronautique d'un coup d'oeil ! - Copyright ORBIFLY Décembre 2007 - Disclaimer

ORBIFLY MET'MAP TEAM :

Programmation & Développement : Alexandra Zaïnal
Conception & Développement : Baudouin d'Aumeries
Co-Programmation & Développement : Marc-Olivier Méhu
Soutien technique & logistique : Manuel Goepfert

Contact : metmap@orbifly.com




SOURCES & CREDITS :

   NOAA